createdAt,value
2022-11-17T00:04:11.965Z,2.32
2022-11-17T00:09:17.740Z,2.28
2022-11-17T00:14:32.929Z,2.26
2022-11-17T00:19:54.573Z,2.25
2022-11-17T00:24:57.487Z,2.21
2022-11-17T00:30:00.488Z,2.20
2022-11-17T00:35:05.025Z,2.24
2022-11-17T00:40:08.788Z,2.28
2022-11-17T00:45:11.756Z,2.28
2022-11-17T00:50:15.516Z,2.26
2022-11-17T00:55:18.813Z,2.24
2022-11-17T01:00:22.092Z,2.23
2022-11-17T01:05:29.021Z,2.20
2022-11-17T01:10:36.172Z,2.19
2022-11-17T01:15:39.115Z,2.21
2022-11-17T01:20:42.020Z,2.22
2022-11-17T01:25:44.925Z,2.20
2022-11-17T01:30:47.834Z,2.15
2022-11-17T01:35:51.039Z,2.08
2022-11-17T01:40:53.948Z,2.06
2022-11-17T01:45:57.975Z,2.02
2022-11-17T01:51:01.189Z,1.97
2022-11-17T01:56:11.201Z,1.95
2022-11-17T02:01:14.030Z,1.91
2022-11-17T02:06:36.412Z,1.82
2022-11-17T02:11:39.436Z,1.76
2022-11-17T02:16:42.324Z,1.72
2022-11-17T02:22:04.231Z,1.68
2022-11-17T02:27:22.027Z,1.65
2022-11-17T02:32:30.759Z,1.63
2022-11-17T02:37:45.958Z,1.58
2022-11-17T02:43:16.613Z,1.55
2022-11-17T02:48:34.878Z,1.55
2022-11-17T02:53:39.744Z,1.56
2022-11-17T02:58:42.649Z,1.57
2022-11-17T03:03:59.768Z,1.57
2022-11-17T03:09:14.965Z,1.59
2022-11-17T03:14:44.903Z,1.56
2022-11-17T03:19:59.477Z,1.54
2022-11-17T03:25:07.210Z,1.53
2022-11-17T03:30:12.412Z,1.50
2022-11-17T03:35:20.554Z,1.50
2022-11-17T03:40:28.192Z,1.47
2022-11-17T03:45:36.016Z,1.44
2022-11-17T03:50:46.188Z,1.44
2022-11-17T03:56:09.267Z,1.42
2022-11-17T04:01:14.275Z,1.39
2022-11-17T04:06:17.845Z,1.37
2022-11-17T04:11:39.178Z,1.36
2022-11-17T04:16:42.491Z,1.37
2022-11-17T04:21:45.398Z,1.36
2022-11-17T04:27:06.834Z,1.33
2022-11-17T04:32:09.744Z,1.32
2022-11-17T04:37:17.647Z,1.30
2022-11-17T04:42:20.770Z,1.25
2022-11-17T04:47:23.606Z,1.20
2022-11-17T04:52:29.752Z,1.11
2022-11-17T04:57:33.073Z,1.01
2022-11-17T05:02:36.196Z,0.95
2022-11-17T05:07:39.088Z,0.90
2022-11-17T05:13:00.619Z,0.90
2022-11-17T05:18:03.681Z,0.89
2022-11-17T05:23:41.859Z,0.87
2022-11-17T05:28:45.376Z,0.89
2022-11-17T05:33:48.593Z,0.89
2022-11-17T05:38:52.574Z,0.90
2022-11-17T05:43:56.293Z,0.91
2022-11-17T05:48:59.151Z,0.91
2022-11-17T05:54:02.152Z,0.91
2022-11-17T05:59:23.401Z,0.92
2022-11-17T06:04:29.526Z,0.90
2022-11-17T06:09:35.541Z,0.86
2022-11-17T06:14:40.009Z,0.82
2022-11-17T06:19:47.391Z,0.80
2022-11-17T06:24:50.707Z,0.81
2022-11-17T06:29:55.554Z,0.83
2022-11-17T06:35:00.816Z,0.81
2022-11-17T06:40:04.608Z,0.78
2022-11-17T06:45:08.429Z,0.79
2022-11-17T06:50:11.687Z,0.77
2022-11-17T06:55:14.993Z,0.80
2022-11-17T07:00:19.149Z,0.82
2022-11-17T07:05:22.160Z,0.85
2022-11-17T07:10:25.517Z,0.88
2022-11-17T07:15:28.662Z,0.89
2022-11-17T07:20:31.668Z,0.92
2022-11-17T07:25:34.571Z,0.97
2022-11-17T07:30:37.576Z,1.02
2022-11-17T07:35:40.583Z,1.05
2022-11-17T07:40:43.487Z,1.11
2022-11-17T07:45:46.389Z,1.12
2022-11-17T07:50:49.396Z,1.14
2022-11-17T07:55:52.301Z,1.15
2022-11-17T08:00:55.252Z,1.19
2022-11-17T08:06:02.922Z,1.24
2022-11-17T08:11:08.502Z,1.25
2022-11-17T08:16:12.722Z,1.32
2022-11-17T08:21:15.940Z,1.42
2022-11-17T08:26:23.899Z,1.61
2022-11-17T08:31:27.272Z,1.84
2022-11-17T08:36:30.812Z,2.06
2022-11-17T08:41:33.800Z,2.26
2022-11-17T08:46:36.704Z,2.36
2022-11-17T08:51:39.605Z,2.41
2022-11-17T08:56:42.567Z,2.49
2022-11-17T09:01:45.576Z,2.72
2022-11-17T09:06:48.739Z,3.24
2022-11-17T09:11:51.631Z,4.52
2022-11-17T09:16:54.537Z,8.23
2022-11-17T09:21:57.445Z,9.00
2022-11-17T09:27:03.114Z,11.57
2022-11-17T09:32:06.118Z,12.82
2022-11-17T09:37:09.471Z,14.84
2022-11-17T09:42:19.456Z,16.91
2022-11-17T09:47:41.866Z,18.40
2022-11-17T09:53:24.295Z,19.10
2022-11-17T09:58:41.681Z,19.52
2022-11-17T10:03:47.521Z,20.28
2022-11-17T10:09:12.640Z,20.79
2022-11-17T10:14:16.982Z,21.57
2022-11-17T10:19:22.853Z,21.48
2022-11-17T10:24:35.088Z,20.96
2022-11-17T10:29:37.908Z,21.67
2022-11-17T10:34:41.856Z,21.91
2022-11-17T10:39:45.016Z,21.63
2022-11-17T10:44:53.249Z,22.00
2022-11-17T10:50:19.287Z,22.10
2022-11-17T10:55:34.485Z,22.52
2022-11-17T11:00:37.691Z,23.13
2022-11-17T11:05:59.544Z,23.76
2022-11-17T11:11:49.046Z,23.83
2022-11-17T11:16:52.462Z,24.07
2022-11-17T11:21:58.141Z,23.48
2022-11-17T11:27:19.362Z,23.13
2022-11-17T11:32:46.134Z,23.52
2022-11-17T11:38:05.831Z,23.72
2022-11-17T11:43:44.940Z,23.69
2022-11-17T11:48:51.776Z,23.74
2022-11-17T11:53:57.040Z,22.83
2022-11-17T11:59:13.762Z,23.15
2022-11-17T12:04:30.618Z,22.20
2022-11-17T12:09:45.582Z,21.82
2022-11-17T12:15:09.379Z,21.84
2022-11-17T12:20:33.682Z,21.40
2022-11-17T12:25:49.040Z,21.18
2022-11-17T12:31:09.820Z,20.34
2022-11-17T12:36:31.075Z,20.40
2022-11-17T12:41:50.018Z,20.36
2022-11-17T12:47:00.192Z,20.68
2022-11-17T12:52:14.055Z,20.69
2022-11-17T12:57:22.275Z,20.95
2022-11-17T13:02:25.189Z,20.73
2022-11-17T13:07:28.411Z,20.66
2022-11-17T13:12:33.970Z,20.50
2022-11-17T13:17:43.119Z,20.10
2022-11-17T13:23:26.066Z,19.32
2022-11-17T13:28:32.039Z,18.43
2022-11-17T13:33:40.305Z,17.73
2022-11-17T13:38:51.587Z,17.11
2022-11-17T13:43:56.428Z,16.56
2022-11-17T13:48:59.292Z,15.84
2022-11-17T13:54:06.043Z,14.60
2022-11-17T13:59:28.888Z,13.20
2022-11-17T14:04:32.001Z,11.76
2022-11-17T14:09:35.721Z,10.16
2022-11-17T14:14:38.524Z,8.75
2022-11-17T14:19:41.530Z,7.44
2022-11-17T14:24:45.456Z,6.23
2022-11-17T14:29:48.463Z,5.15
2022-11-17T14:34:51.472Z,4.29
2022-11-17T14:39:54.480Z,3.57
2022-11-17T14:44:57.488Z,2.98
2022-11-17T14:50:00.391Z,2.44
2022-11-17T14:55:03.707Z,2.00
2022-11-17T15:00:09.290Z,1.56
2022-11-17T15:05:12.871Z,1.23
2022-11-17T15:10:16.508Z,0.92
2022-11-17T15:15:19.521Z,0.66
2022-11-17T15:20:22.424Z,0.43
2022-11-17T15:25:25.328Z,0.24
2022-11-17T15:30:28.440Z,0.04
2022-11-17T15:35:31.340Z,-0.12
2022-11-17T15:40:34.244Z,-0.26
2022-11-17T15:45:37.967Z,-0.38
2022-11-17T15:50:40.872Z,-0.52
2022-11-17T15:55:43.777Z,-0.64
2022-11-17T16:00:46.702Z,-0.76
2022-11-17T16:05:49.891Z,-0.83
2022-11-17T16:10:52.798Z,-0.90
2022-11-17T16:15:56.532Z,-1.00
2022-11-17T16:21:07.105Z,-1.10
2022-11-17T16:26:11.955Z,-1.17
2022-11-17T16:31:20.900Z,-1.27
2022-11-17T16:36:30.002Z,-1.38
2022-11-17T16:41:39.104Z,-1.48
2022-11-17T16:46:44.369Z,-1.56
2022-11-17T16:51:52.652Z,-1.63
2022-11-17T16:56:55.499Z,-1.67
2022-11-17T17:01:58.502Z,-1.71
2022-11-17T17:07:02.112Z,-1.78
2022-11-17T17:12:06.073Z,-1.86
2022-11-17T17:17:08.959Z,-1.92
2022-11-17T17:22:12.061Z,-1.98
2022-11-17T17:27:14.966Z,-2.02
2022-11-17T17:32:17.871Z,-2.06
2022-11-17T17:37:20.876Z,-2.13
2022-11-17T17:42:23.781Z,-2.20
2022-11-17T17:47:26.688Z,-2.25
2022-11-17T17:52:29.596Z,-2.30
2022-11-17T17:57:34.033Z,-2.36
2022-11-17T18:02:37.240Z,-2.41
2022-11-17T18:07:40.591Z,-2.44
2022-11-17T18:12:43.566Z,-2.48
2022-11-17T18:17:46.467Z,-2.51
2022-11-17T18:22:49.371Z,-2.56
2022-11-17T18:27:52.991Z,-2.63
2022-11-17T18:33:00.252Z,-2.71
2022-11-17T18:38:05.976Z,-2.78
2022-11-17T18:43:08.873Z,-2.83
2022-11-17T18:48:11.843Z,-2.88
2022-11-17T18:53:14.783Z,-2.91
2022-11-17T18:58:17.688Z,-2.95
2022-11-17T19:03:20.540Z,-2.98
2022-11-17T19:08:23.904Z,-3.01
2022-11-17T19:13:29.785Z,-3.05
2022-11-17T19:18:33.232Z,-3.08
2022-11-17T19:23:37.942Z,-3.10
2022-11-17T19:28:41.908Z,-3.13
2022-11-17T19:33:46.928Z,-3.18
2022-11-17T19:38:51.775Z,-3.23
2022-11-17T19:43:56.562Z,-3.23
2022-11-17T19:48:59.698Z,-3.14
2022-11-17T19:54:05.709Z,-2.97
2022-11-17T19:59:13.969Z,-2.78
2022-11-17T20:04:18.891Z,-2.54
2022-11-17T20:09:22.616Z,-2.29
2022-11-17T20:14:25.518Z,-2.06
2022-11-17T20:19:28.424Z,-1.89
2022-11-17T20:24:31.330Z,-1.78
2022-11-17T20:29:34.543Z,-1.73
2022-11-17T20:34:37.451Z,-1.71
2022-11-17T20:39:40.556Z,-1.71
2022-11-17T20:44:46.735Z,-1.70
2022-11-17T20:49:49.536Z,-1.67
2022-11-17T20:54:52.440Z,-1.63
2022-11-17T20:59:55.343Z,-1.57
2022-11-17T21:04:58.246Z,-1.48
2022-11-17T21:10:01.254Z,-1.36
2022-11-17T21:15:04.953Z,-1.24
2022-11-17T21:20:08.809Z,-1.20
2022-11-17T21:25:11.707Z,-1.24
2022-11-17T21:30:15.021Z,-1.29
2022-11-17T21:35:17.926Z,-1.38
2022-11-17T21:40:20.832Z,-1.42
2022-11-17T21:45:23.734Z,-1.44
2022-11-17T21:50:26.849Z,-1.43
2022-11-17T21:55:30.161Z,-1.38
2022-11-17T22:00:33.062Z,-1.28
2022-11-17T22:05:35.863Z,-1.17
2022-11-17T22:10:38.873Z,-1.10
2022-11-17T22:15:42.080Z,-1.09
2022-11-17T22:20:50.824Z,-1.12
2022-11-17T22:25:59.257Z,-1.19
2022-11-17T22:31:09.828Z,-1.26
2022-11-17T22:36:13.052Z,-1.30
2022-11-17T22:41:15.957Z,-1.31
2022-11-17T22:46:20.377Z,-1.25
2022-11-17T22:51:42.859Z,-1.19
2022-11-17T22:56:46.072Z,-1.16
2022-11-17T23:01:49.102Z,-1.16
2022-11-17T23:06:52.365Z,-1.16
2022-11-17T23:11:55.298Z,-1.18
2022-11-17T23:16:58.609Z,-1.21
2022-11-17T23:22:01.517Z,-1.22
2022-11-17T23:27:04.622Z,-1.22
2022-11-17T23:32:07.525Z,-1.22
2022-11-17T23:37:10.977Z,-1.19
2022-11-17T23:42:13.849Z,-1.14
2022-11-17T23:47:16.756Z,-1.08
2022-11-17T23:52:19.654Z,-1.07
2022-11-17T23:57:22.557Z,-1.08
